Tacoma Narrows Airport Tacoma US
ICAO: KTIW
IATA: TIW
Category: Medium
Scheduled Services: No

Elevation: 294 ft
TransAlt. 18000 ft.

Airport Communications:
SEATTLE APP/DEP:120.1
ATIS:124.05
CTAF:118.5
GND:121.8
TWR:118.5
UNICOM:122.95

KTIW Zoom In..

Runways:

(A) RW 17 length 5002 ft width 150 ft
ILS 109.10 / hdg 167

(B) RW 35 length 5002 ft width 150 ft
---- / hdg 347

Location; KTIW
Day. 30 / Time. 22.53 Zulu
* Altimeter: 30.28
* Temperature: 09° c. 48.2°f.
* Wind from: KTI° Speed W kn.
Dewpoint: 02° c.
Visibility: 10 Statute Miles.
Clouds: Scattered 1900 ft.
Clouds: Scattered 3400 ft.

KTIW 302253Z VRB06G20KT 10SM SCT019 SCT034 09/02 A3028 RMK AO2 SLP257 T00890022

Going to: --> -->


Wind From KTI°
Speed W kn.

 
 
jpsmedia worldairports.se 2020   terms of use